createdAt,value
2019-04-22T00:02:22.591Z,24.15
2019-04-22T00:05:05.774Z,24.13
2019-04-22T00:07:53.320Z,24.12
2019-04-22T00:10:24.146Z,24.12
2019-04-22T00:15:15.506Z,24.09
2019-04-22T00:17:54.847Z,24.09
2019-04-22T00:20:14.700Z,24.07
2019-04-22T00:22:46.498Z,24.06
2019-04-22T00:25:22.481Z,24.05
2019-04-22T00:28:02.360Z,24.03
2019-04-22T00:30:28.385Z,24.02
2019-04-22T00:33:25.539Z,24.02
2019-04-22T00:35:49.704Z,24.01
2019-04-22T00:38:23.488Z,24.00
2019-04-22T00:40:55.868Z,23.99
2019-04-22T00:43:25.960Z,23.96
2019-04-22T00:45:50.540Z,23.96
2019-04-22T00:51:01.390Z,23.95
2019-04-22T00:53:31.290Z,23.93
2019-04-22T00:56:00.559Z,23.92
2019-04-22T00:58:32.441Z,23.91
2019-04-22T01:01:09.847Z,23.90
2019-04-22T01:03:37.030Z,23.89
2019-04-22T01:06:03.283Z,23.89
2019-04-22T01:08:40.325Z,23.87
2019-04-22T01:11:13.456Z,23.86
2019-04-22T01:13:30.453Z,23.85
2019-04-22T01:16:11.253Z,23.84
2019-04-22T01:18:37.963Z,23.84
2019-04-22T01:21:16.402Z,23.83
2019-04-22T01:23:37.235Z,23.83
2019-04-22T01:26:05.401Z,23.82
2019-04-22T01:28:34.180Z,23.81
2019-04-22T01:31:01.050Z,23.80
2019-04-22T01:33:32.435Z,23.78
2019-04-22T01:36:15.551Z,23.79
2019-04-22T01:38:51.205Z,23.79
2019-04-22T01:41:23.600Z,23.78
2019-04-22T01:43:59.032Z,23.78
2019-04-22T01:46:25.032Z,23.77
2019-04-22T01:48:55.384Z,23.76
2019-04-22T01:51:39.315Z,23.75
2019-04-22T01:54:00.539Z,23.75
2019-04-22T01:56:20.474Z,23.74
2019-04-22T01:58:43.906Z,23.75
2019-04-22T02:01:22.118Z,23.73
2019-04-22T02:03:54.600Z,23.73
2019-04-22T02:06:23.453Z,23.72
2019-04-22T02:11:30.992Z,23.70
2019-04-22T02:13:59.197Z,23.70
2019-04-22T02:16:23.976Z,23.70
2019-04-22T02:18:58.401Z,23.69
2019-04-22T02:21:21.574Z,23.68
2019-04-22T02:23:54.030Z,23.67
2019-04-22T02:26:25.785Z,23.65
2019-04-22T02:29:11.020Z,23.65
2019-04-22T02:44:26.340Z,23.63
2019-04-22T02:51:27.769Z,23.62
2019-04-22T02:54:25.408Z,23.60
2019-04-22T02:59:09.961Z,23.58
2019-04-22T03:04:06.720Z,23.57
2019-04-22T03:06:38.379Z,23.55
2019-04-22T03:09:03.741Z,23.55
2019-04-22T03:14:04.788Z,23.52
2019-04-22T03:16:40.301Z,23.53
2019-04-22T03:19:16.958Z,23.52
2019-04-22T03:21:31.781Z,23.51
2019-04-22T03:24:18.009Z,23.51
2019-04-22T03:29:10.802Z,23.50
2019-04-22T03:39:38.530Z,23.43
2019-04-22T03:44:31.831Z,23.43
2019-04-22T03:49:45.696Z,23.42
2019-04-22T03:52:05.859Z,23.40
2019-04-22T03:59:33.653Z,23.38
2019-04-22T04:11:59.959Z,23.36
2019-04-22T04:19:34.780Z,23.34
2019-04-22T04:21:58.200Z,23.34
2019-04-22T04:24:53.660Z,23.34
2019-04-22T04:27:15.301Z,23.34
2019-04-22T04:32:07.180Z,23.32
2019-04-22T04:34:56.342Z,23.32
2019-04-22T04:37:07.379Z,23.32
2019-04-22T04:39:40.694Z,23.31
2019-04-22T04:42:18.729Z,23.31
2019-04-22T04:49:39.272Z,23.30
2019-04-22T04:56:56.087Z,23.32
2019-04-22T05:02:06.754Z,23.32
2019-04-22T05:07:14.741Z,23.34
2019-04-22T05:09:28.925Z,23.34
2019-04-22T05:12:24.537Z,23.35
2019-04-22T05:17:18.424Z,23.36
2019-04-22T05:19:33.120Z,23.36
2019-04-22T05:21:58.015Z,23.38
2019-04-22T05:24:31.487Z,23.37
2019-04-22T05:27:05.354Z,23.38
2019-04-22T05:30:00.107Z,23.42
2019-04-22T05:31:56.776Z,23.45
2019-04-22T05:34:29.173Z,23.48
2019-04-22T05:37:01.172Z,23.51
2019-04-22T05:39:47.020Z,23.54
2019-04-22T05:42:04.145Z,23.58
2019-04-22T05:44:29.408Z,23.62
2019-04-22T05:46:52.751Z,23.68
2019-04-22T05:49:28.940Z,23.70
2019-04-22T05:51:54.629Z,23.75
2019-04-22T05:54:27.445Z,23.78
2019-04-22T05:56:51.666Z,23.80
2019-04-22T05:59:32.627Z,23.82
2019-04-22T06:04:32.403Z,23.89
2019-04-22T06:07:05.022Z,23.94
2019-04-22T06:09:32.522Z,24.01
2019-04-22T06:12:00.165Z,24.04
2019-04-22T06:14:32.872Z,24.09
2019-04-22T06:17:03.645Z,24.16
2019-04-22T06:19:38.353Z,24.20
2019-04-22T06:22:17.467Z,24.27
2019-04-22T06:24:31.421Z,24.33
2019-04-22T06:29:35.220Z,24.48
2019-04-22T06:32:26.499Z,24.57
2019-04-22T06:34:35.701Z,24.68
2019-04-22T06:39:36.947Z,24.91
2019-04-22T06:42:10.450Z,25.03
2019-04-22T06:44:36.996Z,25.15
2019-04-22T06:47:06.167Z,25.27
2019-04-22T06:49:48.268Z,25.41
2019-04-22T06:52:16.885Z,25.54
2019-04-22T06:54:45.024Z,25.66
2019-04-22T06:57:06.069Z,25.77
2019-04-22T06:59:38.039Z,25.90
2019-04-22T07:02:10.102Z,25.99
2019-04-22T07:04:43.005Z,26.08
2019-04-22T07:07:08.181Z,26.17
2019-04-22T07:09:42.926Z,26.28
2019-04-22T07:12:11.550Z,26.34
2019-04-22T07:14:47.265Z,26.47
2019-04-22T07:17:07.330Z,26.60
2019-04-22T07:19:40.623Z,26.68
2019-04-22T07:22:11.166Z,26.73
2019-04-22T07:27:12.900Z,26.87
2019-04-22T07:29:39.002Z,26.94
2019-04-22T07:32:40.061Z,27.00
2019-04-22T07:34:40.761Z,27.09
2019-04-22T07:37:22.841Z,27.12
2019-04-22T07:39:44.003Z,27.22
2019-04-22T07:42:12.056Z,27.17
2019-04-22T07:44:48.516Z,27.18
2019-04-22T07:49:46.986Z,27.25
2019-04-22T07:52:10.062Z,27.38
2019-04-22T07:54:46.802Z,27.49
2019-04-22T07:59:40.567Z,27.68
2019-04-22T08:02:20.101Z,27.74
2019-04-22T08:04:58.589Z,27.82
2019-04-22T08:07:12.922Z,27.90
2019-04-22T08:09:51.081Z,27.98
2019-04-22T08:12:11.997Z,28.07
2019-04-22T08:14:50.084Z,28.09
2019-04-22T08:17:38.788Z,28.13
2019-04-22T08:19:51.527Z,28.15
2019-04-22T08:22:07.238Z,28.19
2019-04-22T08:27:15.265Z,28.37
2019-04-22T08:29:52.434Z,28.39
2019-04-22T08:32:15.123Z,28.48
2019-04-22T08:34:42.470Z,28.56
2019-04-22T08:39:40.617Z,28.53
2019-04-22T08:42:27.445Z,28.54
2019-04-22T08:47:27.772Z,28.61
2019-04-22T08:49:58.310Z,28.60
2019-04-22T08:54:51.311Z,28.55
2019-04-22T08:57:18.230Z,28.53
2019-04-22T08:59:48.709Z,28.61
2019-04-22T09:02:23.633Z,28.63
2019-04-22T09:04:45.022Z,28.65
2019-04-22T09:07:33.079Z,28.72
2019-04-22T09:12:23.782Z,28.79
2019-04-22T09:14:47.574Z,28.87
2019-04-22T09:17:25.706Z,28.87
2019-04-22T09:19:48.117Z,28.86
2019-04-22T09:22:22.105Z,28.93
2019-04-22T09:24:47.044Z,29.00
2019-04-22T09:27:30.768Z,29.06
2019-04-22T09:32:24.878Z,29.20
2019-04-22T09:34:47.584Z,29.26
2019-04-22T09:42:18.826Z,29.43
2019-04-22T09:44:55.499Z,29.40
2019-04-22T09:47:19.254Z,29.47
2019-04-22T09:49:55.272Z,29.42
2019-04-22T09:52:25.731Z,29.49
2019-04-22T09:57:21.113Z,29.50
2019-04-22T10:00:00.587Z,29.56
2019-04-22T10:04:55.463Z,29.65
2019-04-22T10:07:20.989Z,29.71
2019-04-22T10:09:59.785Z,29.78
2019-04-22T10:12:28.063Z,29.91
2019-04-22T10:14:51.188Z,29.92
2019-04-22T10:17:17.553Z,29.96
2019-04-22T10:19:57.868Z,30.05
2019-04-22T10:22:27.608Z,30.05
2019-04-22T10:24:53.596Z,30.14
2019-04-22T10:27:21.345Z,30.27
2019-04-22T10:30:29.491Z,30.31
2019-04-22T10:32:27.955Z,30.36
2019-04-22T10:34:38.815Z,30.20
2019-04-22T10:37:04.418Z,30.18
2019-04-22T10:39:41.210Z,30.08
2019-04-22T10:42:02.875Z,30.08
2019-04-22T10:44:31.392Z,30.11
2019-04-22T10:47:00.082Z,30.30
2019-04-22T10:49:28.806Z,30.43
2019-04-22T10:51:58.362Z,30.49
2019-04-22T10:54:27.418Z,30.32
2019-04-22T10:56:56.955Z,30.25
2019-04-22T10:59:26.798Z,30.07
2019-04-22T11:01:55.327Z,29.87
2019-04-22T11:04:23.736Z,29.56
2019-04-22T11:06:57.964Z,29.33
2019-04-22T11:09:23.892Z,29.18
2019-04-22T11:12:01.388Z,29.08
2019-04-22T11:14:23.281Z,29.16
2019-04-22T11:16:53.192Z,29.19
2019-04-22T11:19:21.887Z,29.26
2019-04-22T11:22:02.633Z,29.19
2019-04-22T11:24:20.978Z,29.04
2019-04-22T11:26:49.482Z,29.02
2019-04-22T11:29:19.455Z,29.04
2019-04-22T11:31:48.284Z,29.04
2019-04-22T11:34:17.181Z,28.94
2019-04-22T11:36:47.062Z,28.94
2019-04-22T11:39:16.999Z,29.06
2019-04-22T11:41:46.424Z,29.12
2019-04-22T11:44:15.158Z,29.22
2019-04-22T11:46:43.660Z,29.28
2019-04-22T11:49:12.280Z,29.34
2019-04-22T11:51:42.077Z,29.40
2019-04-22T11:54:10.707Z,29.45
2019-04-22T11:56:39.131Z,29.54
2019-04-22T11:59:08.752Z,29.46
2019-04-22T12:01:37.345Z,29.43
2019-04-22T12:04:07.455Z,29.39
2019-04-22T12:06:37.771Z,29.50
2019-04-22T12:09:11.952Z,29.42
2019-04-22T12:11:40.866Z,29.35
2019-04-22T12:14:09.886Z,29.32
2019-04-22T12:16:39.356Z,29.14
2019-04-22T12:19:09.222Z,28.96
2019-04-22T12:21:39.213Z,28.78
2019-04-22T12:24:09.110Z,28.45
2019-04-22T12:26:38.021Z,28.32
2019-04-22T12:29:07.106Z,28.20
2019-04-22T12:31:35.803Z,28.11
2019-04-22T12:34:05.998Z,27.95
2019-04-22T12:36:34.535Z,28.01
2019-04-22T12:39:03.337Z,28.07
2019-04-22T12:41:31.945Z,28.00
2019-04-22T12:44:00.970Z,27.95
2019-04-22T12:46:30.160Z,27.83
2019-04-22T12:49:00.193Z,27.71
2019-04-22T12:51:29.221Z,27.57
2019-04-22T12:53:59.095Z,27.53
2019-04-22T12:56:27.990Z,27.37
2019-04-22T12:58:56.427Z,27.38
2019-04-22T13:01:24.865Z,27.30
2019-04-22T13:03:57.662Z,27.22
2019-04-22T13:06:23.708Z,27.17
2019-04-22T13:08:52.484Z,27.10
2019-04-22T13:11:27.940Z,27.11
2019-04-22T13:13:51.254Z,27.11
2019-04-22T13:16:20.671Z,27.09
2019-04-22T13:18:55.634Z,27.03
2019-04-22T13:21:20.535Z,27.04
2019-04-22T13:23:49.023Z,27.04
2019-04-22T13:26:18.907Z,27.00
2019-04-22T13:28:47.460Z,26.99
2019-04-22T13:31:16.883Z,26.96
2019-04-22T13:33:46.675Z,26.96
2019-04-22T13:36:19.055Z,26.89
2019-04-22T13:38:46.802Z,26.86
2019-04-22T13:41:28.249Z,26.79
2019-04-22T13:43:45.476Z,26.76
2019-04-22T13:46:14.454Z,26.74
2019-04-22T13:49:10.667Z,26.66
2019-04-22T13:51:45.212Z,26.70
2019-04-22T13:54:40.449Z,26.70
2019-04-22T13:56:30.414Z,26.74
2019-04-22T13:58:57.723Z,26.75
2019-04-22T14:01:16.505Z,26.71
2019-04-22T14:03:58.869Z,26.73
2019-04-22T14:06:28.937Z,26.64
2019-04-22T14:08:59.067Z,26.61
2019-04-22T14:11:40.501Z,26.57
2019-04-22T14:13:58.721Z,26.58
2019-04-22T14:16:27.312Z,26.58
2019-04-22T14:18:56.014Z,26.57
2019-04-22T14:21:24.941Z,26.60
2019-04-22T14:23:53.439Z,26.57
2019-04-22T14:26:23.030Z,26.52
2019-04-22T14:28:51.582Z,26.50
2019-04-22T14:31:20.351Z,26.45
2019-04-22T14:33:53.383Z,26.41
2019-04-22T14:36:19.250Z,26.37
2019-04-22T14:38:48.049Z,26.32
2019-04-22T14:41:35.821Z,26.23
2019-04-22T14:44:51.427Z,26.16
2019-04-22T14:46:39.084Z,26.20
2019-04-22T14:49:10.638Z,26.23
2019-04-22T14:51:39.181Z,26.25
2019-04-22T14:54:05.306Z,26.27
2019-04-22T14:56:18.159Z,26.25
2019-04-22T14:58:46.914Z,26.24
2019-04-22T15:01:16.940Z,26.23
2019-04-22T15:03:48.231Z,26.26
2019-04-22T15:06:15.863Z,26.26
2019-04-22T15:08:45.111Z,26.27
2019-04-22T15:11:14.967Z,26.25
2019-04-22T15:13:43.518Z,26.25
2019-04-22T15:16:29.851Z,26.24
2019-04-22T15:19:00.029Z,26.25
2019-04-22T15:21:29.486Z,26.21
2019-04-22T15:24:00.504Z,26.21
2019-04-22T15:26:30.559Z,26.21
2019-04-22T15:28:59.746Z,26.18
2019-04-22T15:31:29.164Z,26.16
2019-04-22T15:33:58.406Z,26.17
2019-04-22T15:36:27.969Z,26.17
2019-04-22T15:38:57.567Z,26.07
2019-04-22T15:41:26.124Z,26.01
2019-04-22T15:43:54.568Z,26.06
2019-04-22T15:46:23.498Z,26.08
2019-04-22T15:48:52.074Z,26.09
2019-04-22T15:51:20.750Z,26.08
2019-04-22T15:53:49.589Z,26.05
2019-04-22T15:56:18.812Z,25.94
2019-04-22T15:58:47.973Z,25.99
2019-04-22T16:01:23.029Z,25.94
2019-04-22T16:03:47.106Z,25.94
2019-04-22T16:06:15.789Z,25.99
2019-04-22T16:08:45.694Z,26.00
2019-04-22T16:11:15.815Z,26.02
2019-04-22T16:13:44.378Z,26.02
2019-04-22T16:16:14.449Z,26.01
2019-04-22T16:18:44.304Z,26.00
2019-04-22T16:21:13.217Z,26.02
2019-04-22T16:23:54.339Z,26.02
2019-04-22T16:26:38.052Z,26.01
2019-04-22T16:29:09.415Z,25.99
2019-04-22T16:31:39.636Z,26.01
2019-04-22T16:34:09.456Z,26.01
2019-04-22T16:36:38.802Z,26.00
2019-04-22T16:39:10.973Z,25.97
2019-04-22T16:41:39.454Z,25.99
2019-04-22T16:44:09.002Z,25.95
2019-04-22T16:46:37.647Z,25.94
2019-04-22T16:49:07.580Z,25.94
2019-04-22T16:51:36.251Z,25.92
2019-04-22T16:54:06.490Z,25.92
2019-04-22T16:56:37.044Z,25.90
2019-04-22T16:59:06.651Z,25.89
2019-04-22T17:01:40.920Z,25.88
2019-04-22T17:04:23.150Z,25.83
2019-04-22T17:06:53.379Z,25.83
2019-04-22T17:09:21.877Z,25.83
2019-04-22T17:11:52.003Z,25.84
2019-04-22T17:14:28.433Z,25.83
2019-04-22T17:16:50.797Z,25.83
2019-04-22T17:19:19.389Z,25.82
2019-04-22T17:21:48.028Z,25.82
2019-04-22T17:24:17.472Z,25.81
2019-04-22T17:26:46.417Z,25.78
2019-04-22T17:29:16.688Z,25.75
2019-04-22T17:31:52.573Z,25.75
2019-04-22T17:34:15.772Z,25.76
2019-04-22T17:36:46.118Z,25.77
2019-04-22T17:39:30.451Z,25.74
2019-04-22T17:42:04.526Z,25.70
2019-04-22T17:44:45.531Z,25.69
2019-04-22T17:47:03.897Z,25.70
2019-04-22T17:49:49.919Z,25.68
2019-04-22T17:54:50.570Z,25.67
2019-04-22T17:57:21.705Z,25.60
2019-04-22T17:59:56.813Z,25.56
2019-04-22T18:02:22.548Z,25.57
2019-04-22T18:04:38.735Z,25.57
2019-04-22T18:07:31.494Z,25.58
2019-04-22T18:10:16.126Z,25.59
2019-04-22T18:12:34.194Z,25.54
2019-04-22T18:15:11.420Z,25.52
2019-04-22T18:17:27.265Z,25.51
2019-04-22T18:19:51.879Z,25.52
2019-04-22T18:22:19.886Z,25.53
2019-04-22T18:24:50.111Z,25.51
2019-04-22T18:27:40.270Z,25.52
2019-04-22T18:29:51.974Z,25.51
2019-04-22T18:32:16.816Z,25.47
2019-04-22T18:34:47.993Z,25.47
2019-04-22T18:37:19.960Z,25.41
2019-04-22T18:39:58.383Z,25.37
2019-04-22T18:42:23.875Z,25.35
2019-04-22T18:45:09.899Z,25.37
2019-04-22T18:47:18.580Z,25.35
2019-04-22T18:49:49.361Z,25.35
2019-04-22T18:52:24.627Z,25.36
2019-04-22T18:54:56.801Z,25.36
2019-04-22T18:57:29.928Z,25.32
2019-04-22T18:59:46.536Z,25.32
2019-04-22T19:02:17.430Z,25.29
2019-04-22T19:04:54.947Z,25.28
2019-04-22T19:07:42.138Z,25.26
2019-04-22T19:10:09.650Z,25.25
2019-04-22T19:12:47.292Z,25.23
2019-04-22T19:15:10.946Z,25.21
2019-04-22T19:17:45.913Z,25.21
2019-04-22T19:20:08.295Z,25.20
2019-04-22T19:22:36.044Z,25.19
2019-04-22T19:25:02.974Z,25.18
2019-04-22T19:27:36.012Z,25.17
2019-04-22T19:30:10.503Z,25.18
2019-04-22T19:32:40.415Z,25.16
2019-04-22T19:35:03.350Z,25.15
2019-04-22T19:37:33.157Z,25.15
2019-04-22T19:42:43.136Z,25.13
2019-04-22T19:45:09.060Z,25.13
2019-04-22T19:47:56.532Z,25.10
2019-04-22T19:50:14.545Z,25.08
2019-04-22T19:52:41.870Z,25.06
2019-04-22T19:55:07.720Z,25.06
2019-04-22T19:57:34.444Z,25.05
2019-04-22T20:00:14.439Z,25.04
2019-04-22T20:02:51.160Z,25.04
2019-04-22T20:05:29.712Z,25.02
2019-04-22T20:08:03.135Z,25.00
2019-04-22T20:10:36.960Z,25.00
2019-04-22T20:12:52.956Z,24.98
2019-04-22T20:15:23.014Z,24.97
2019-04-22T20:20:32.944Z,24.96
2019-04-22T20:22:57.502Z,24.96
2019-04-22T20:25:27.914Z,24.94
2019-04-22T20:28:01.585Z,24.94
2019-04-22T20:30:32.850Z,24.93
2019-04-22T20:32:59.167Z,24.92
2019-04-22T20:35:39.056Z,24.91
2019-04-22T20:38:04.293Z,24.90
2019-04-22T20:40:38.772Z,24.90
2019-04-22T20:43:10.369Z,24.90
2019-04-22T20:45:41.568Z,24.88
2019-04-22T20:47:57.338Z,24.87
2019-04-22T20:50:39.470Z,24.87
2019-04-22T20:53:11.802Z,24.86
2019-04-22T20:55:40.629Z,24.84
2019-04-22T20:58:05.120Z,24.84
2019-04-22T21:00:30.937Z,24.84
2019-04-22T21:02:57.602Z,24.83
2019-04-22T21:05:32.741Z,24.83
2019-04-22T21:08:11.537Z,24.81
2019-04-22T21:10:33.423Z,24.80
2019-04-22T21:13:05.613Z,24.81
2019-04-22T21:15:44.367Z,24.80
2019-04-22T21:18:05.856Z,24.78
2019-04-22T21:20:47.797Z,24.77
2019-04-22T21:23:11.087Z,24.77
2019-04-22T21:25:29.121Z,24.77
2019-04-22T21:28:14.424Z,24.76
2019-04-22T21:30:41.413Z,24.74
2019-04-22T21:33:06.721Z,24.74
2019-04-22T21:35:54.992Z,24.74
2019-04-22T21:38:15.155Z,24.73
2019-04-22T21:40:39.721Z,24.73
2019-04-22T21:43:12.315Z,24.72
2019-04-22T21:45:39.281Z,24.71
2019-04-22T21:48:20.204Z,24.71
2019-04-22T21:50:49.758Z,24.70
2019-04-22T21:53:14.558Z,24.69
2019-04-22T21:55:58.600Z,24.68
2019-04-22T21:58:31.265Z,24.68
2019-04-22T22:00:58.553Z,24.67
2019-04-22T22:03:18.956Z,24.67
2019-04-22T22:05:39.786Z,24.66
2019-04-22T22:08:23.518Z,24.66
2019-04-22T22:10:54.751Z,24.65
2019-04-22T22:13:17.126Z,24.65
2019-04-22T22:15:49.582Z,24.65
2019-04-22T22:18:12.316Z,24.64
2019-04-22T22:21:02.184Z,24.65
2019-04-22T22:23:25.345Z,24.63
2019-04-22T22:25:47.737Z,24.61
2019-04-22T22:28:36.191Z,24.61
2019-04-22T22:30:56.210Z,24.58
2019-04-22T22:33:16.753Z,24.58
2019-04-22T22:35:45.746Z,24.57
2019-04-22T22:38:19.570Z,24.55
2019-04-22T22:40:34.050Z,24.55
2019-04-22T22:42:59.907Z,24.53
2019-04-22T22:45:37.485Z,24.53
2019-04-22T22:50:48.965Z,24.52
2019-04-22T22:53:32.716Z,24.51
2019-04-22T22:55:54.782Z,24.49
2019-04-22T22:58:22.203Z,24.49
2019-04-22T23:00:47.562Z,24.47
2019-04-22T23:03:40.634Z,24.49
2019-04-22T23:06:03.598Z,24.47
2019-04-22T23:08:25.786Z,24.47
2019-04-22T23:13:26.105Z,24.43
2019-04-22T23:15:44.365Z,24.44
2019-04-22T23:18:01.704Z,24.43
2019-04-22T23:20:35.454Z,24.42
2019-04-22T23:23:23.524Z,24.41
2019-04-22T23:25:56.337Z,24.40
2019-04-22T23:28:22.380Z,24.41
2019-04-22T23:30:53.353Z,24.39
2019-04-22T23:33:40.881Z,24.39
2019-04-22T23:36:22.860Z,24.38
2019-04-22T23:39:00.159Z,24.36
2019-04-22T23:41:42.405Z,24.36
2019-04-22T23:44:03.798Z,24.36
2019-04-22T23:46:32.300Z,24.35
2019-04-22T23:48:58.002Z,24.34
2019-04-22T23:51:31.225Z,24.33
2019-04-22T23:54:10.599Z,24.32
2019-04-22T23:56:31.776Z,24.32
2019-04-22T23:59:09.653Z,24.31
